Time;durP1;ratioP1;P1;durP2;ratioP2;P2;SDS_P1;SDS_P2;PMS_P1;PMS_P2;Temp;Humidity;BMP_temperature;BMP_pressure;BME280_temperature;BME280_humidity;BME280_pressure;Samples;Min_cycle;Max_cycle;Signal;HPM_P1;HPM_P2
2020/12/14 00:03:22;;;;;;;4.20;2.97;;;2.60;99.90;;;;;;8292017;28;20040;-71
2020/12/14 00:07:23;;;;;;;4.68;3.10;;;2.40;99.90;;;;;;8292152;28;20461;-71
2020/12/14 00:11:35;;;;;;;6.60;3.92;;;2.20;99.90;;;;;;8290807;28;20117;-71
2020/12/14 00:15:35;;;;;;;5.38;3.65;;;2.00;99.90;;;;;;8291859;28;20044;-71
2020/12/14 00:19:36;;;;;;;5.22;3.47;;;2.00;99.90;;;;;;8291790;28;20446;-71
2020/12/14 00:23:37;;;;;;;5.25;3.72;;;2.00;99.90;;;;;;8291648;28;20030;-71
2020/12/14 00:27:37;;;;;;;5.50;4.13;;;2.30;99.90;;;;;;8291652;28;20069;-71
2020/12/14 00:31:38;;;;;;;5.78;3.55;;;2.30;99.90;;;;;;8290296;28;20029;-72
2020/12/14 00:35:38;;;;;;;7.40;3.78;;;2.40;99.90;;;;;;8291559;28;20113;-71
2020/12/14 00:39:39;;;;;;;5.75;3.78;;;2.10;99.90;;;;;;8291287;28;20534;-71
2020/12/14 00:43:39;;;;;;;7.22;4.90;;;1.90;99.90;;;;;;8290913;28;20466;-71
2020/12/14 00:47:40;;;;;;;8.23;4.03;;;1.70;99.90;;;;;;8288772;28;20034;-71
2020/12/14 00:51:40;;;;;;;8.85;4.40;;;1.50;99.90;;;;;;8289535;28;20030;-71
2020/12/14 00:55:41;;;;;;;7.47;4.40;;;1.50;99.90;;;;;;8291050;28;20491;-71
2020/12/14 00:59:42;;;;;;;15.75;4.63;;;1.40;99.90;;;;;;8290730;28;20109;-71
2020/12/14 01:03:42;;;;;;;27.00;5.18;;;1.50;99.90;;;;;;8290398;28;20026;-70
2020/12/14 01:07:43;;;;;;;99.45;6.93;;;1.30;99.90;;;;;;8290750;28;20509;-71
2020/12/14 01:11:43;;;;;;;195.70;7.53;;;1.50;99.90;;;;;;8290235;28;20069;-71
2020/12/14 01:15:44;;;;;;;60.70;6.30;;;1.40;99.90;;;;;;8289053;28;20064;-71
2020/12/14 01:19:45;;;;;;;31.67;6.90;;;1.30;99.90;;;;;;8290157;28;20041;-71
2020/12/14 01:23:45;;;;;;;32.00;6.90;;;1.00;99.90;;;;;;8289082;28;20021;-71
2020/12/14 01:27:46;;;;;;;62.65;6.70;;;1.00;99.90;;;;;;8288739;28;20076;-71
2020/12/14 01:31:46;;;;;;;57.53;7.07;;;1.20;99.90;;;;;;8290029;28;20080;-71
2020/12/14 01:35:47;;;;;;;85.90;8.40;;;1.20;99.90;;;;;;8290192;28;20037;-71
2020/12/14 01:39:48;;;;;;;70.47;7.40;;;1.20;99.90;;;;;;8289717;28;20041;-70
2020/12/14 01:43:48;;;;;;;45.70;5.78;;;1.20;99.90;;;;;;8288949;28;20053;-71
2020/12/14 01:47:49;;;;;;;34.03;5.80;;;1.20;99.90;;;;;;8289856;28;20045;-70
2020/12/14 01:51:50;;;;;;;45.95;5.95;;;1.20;99.90;;;;;;8288133;28;20044;-71
2020/12/14 01:55:54;;;;;;;50.63;6.93;;;0.80;99.90;;;;;;8289575;28;20100;-71
2020/12/14 01:59:56;;;;;;;52.47;6.93;;;0.60;99.90;;;;;;8291000;28;20264;-71
2020/12/14 02:03:57;;;;;;;36.53;6.10;;;0.50;99.90;;;;;;8267988;28;20048;-71
2020/12/14 02:07:58;;;;;;;14.15;7.32;;;0.50;99.90;;;;;;8267219;28;20030;-71
2020/12/14 02:11:58;;;;;;;11.32;6.35;;;0.30;99.90;;;;;;8265888;28;20031;-70
2020/12/14 02:15:59;;;;;;;9.40;6.05;;;0.30;99.90;;;;;;8266779;28;20030;-71
2020/12/14 02:19:59;;;;;;;18.50;5.82;;;0.40;99.90;;;;;;8266610;28;20026;-71
2020/12/14 02:24:00;;;;;;;11.48;5.47;;;0.30;99.90;;;;;;8266649;28;20051;-71
2020/12/14 02:28:01;;;;;;;13.55;6.22;;;0.20;99.90;;;;;;8266658;28;20119;-72
2020/12/14 02:32:01;;;;;;;21.95;6.18;;;0.10;99.90;;;;;;8295463;28;20420;-71
2020/12/14 02:36:02;;;;;;;16.50;6.03;;;0.20;99.90;;;;;;8298971;28;20097;-70
2020/12/14 02:40:04;;;;;;;22.23;5.13;;;0.10;99.90;;;;;;8297322;28;20411;-70
2020/12/14 02:44:04;;;;;;;9.98;5.07;;;0.30;99.90;;;;;;8313769;28;20030;-70
2020/12/14 02:48:05;;;;;;;19.40;6.20;;;0.20;99.90;;;;;;8297131;28;20109;-71
2020/12/14 02:52:07;;;;;;;15.80;4.88;;;0.20;99.90;;;;;;8298270;28;20033;-70
2020/12/14 02:56:07;;;;;;;19.40;5.32;;;0.20;99.90;;;;;;8298362;28;20042;-70
2020/12/14 03:00:08;;;;;;;9.40;5.40;;;0.50;99.90;;;;;;8298056;28;20037;-70
2020/12/14 03:04:08;;;;;;;10.35;6.00;;;0.20;99.90;;;;;;8296633;28;20029;-69
2020/12/14 03:08:09;;;;;;;8.57;5.53;;;0.00;99.90;;;;;;8298255;28;20022;-70
2020/12/14 03:12:11;;;;;;;8.75;5.32;;;0.10;99.90;;;;;;8296647;28;20033;-70
2020/12/14 03:16:11;;;;;;;8.35;5.18;;;0.30;99.90;;;;;;8297783;28;20022;-71
2020/12/14 03:20:12;;;;;;;8.43;5.45;;;0.00;99.90;;;;;;8297273;28;20148;-70
2020/12/14 03:24:13;;;;;;;9.35;5.93;;;-0.10;99.90;;;;;;8297565;28;20034;-71
2020/12/14 03:28:14;;;;;;;8.27;5.35;;;-0.10;99.90;;;;;;8296299;28;20022;-71
2020/12/14 03:32:14;;;;;;;10.13;6.38;;;-0.10;99.90;;;;;;8295882;28;20030;-72
2020/12/14 03:36:15;;;;;;;12.70;6.72;;;-0.20;99.90;;;;;;8296025;28;20037;-70
2020/12/14 03:40:15;;;;;;;10.27;6.35;;;-0.30;99.90;;;;;;8296787;28;20030;-70
2020/12/14 03:44:16;;;;;;;10.70;6.75;;;-0.20;99.90;;;;;;8296623;28;20026;-70
2020/12/14 03:48:17;;;;;;;12.65;6.47;;;0.10;99.90;;;;;;8295039;28;20029;-70
2020/12/14 03:52:17;;;;;;;12.07;6.60;;;0.50;99.90;;;;;;8295222;28;20030;-69
2020/12/14 03:56:22;;;;;;;10.40;7.10;;;0.60;99.90;;;;;;8295269;28;20116;-69
2020/12/14 04:00:23;;;;;;;9.35;6.47;;;0.50;99.90;;;;;;8294729;28;20099;-70
2020/12/14 04:04:24;;;;;;;8.60;6.63;;;0.30;99.90;;;;;;8296146;28;20124;-70
2020/12/14 04:08:24;;;;;;;10.75;6.30;;;0.20;99.90;;;;;;8295014;28;20221;-70
2020/12/14 04:12:25;;;;;;;8.48;5.60;;;0.30;99.90;;;;;;8295931;28;20410;-70
2020/12/14 04:16:25;;;;;;;9.82;5.80;;;0.00;99.90;;;;;;8295880;28;20033;-70
2020/12/14 04:20:26;;;;;;;8.57;5.68;;;-0.20;99.90;;;;;;8295385;28;20053;-70
2020/12/14 04:24:27;;;;;;;10.40;5.93;;;-0.40;99.90;;;;;;8294444;28;20615;-70
2020/12/14 04:28:27;;;;;;;11.80;6.85;;;-0.40;99.90;;;;;;8295310;28;20018;-70
2020/12/14 04:32:28;;;;;;;11.45;6.75;;;-0.30;99.90;;;;;;8293060;28;20029;-70
2020/12/14 04:36:29;;;;;;;12.05;6.63;;;-0.30;99.90;;;;;;8293960;28;20403;-70
2020/12/14 04:40:30;;;;;;;11.38;6.70;;;-0.20;99.90;;;;;;8292419;28;20026;-70
2020/12/14 04:44:32;;;;;;;11.18;6.88;;;-0.30;99.90;;;;;;8293722;28;20483;-70
2020/12/14 04:48:32;;;;;;;11.05;6.90;;;-0.30;99.90;;;;;;8294068;28;20030;-70
2020/12/14 04:52:34;;;;;;;12.32;7.38;;;-0.30;99.90;;;;;;8292380;28;20109;-70
2020/12/14 04:56:39;;;;;;;11.55;7.10;;;-0.40;99.90;;;;;;8261953;28;20030;-70
2020/12/14 05:00:40;;;;;;;12.05;7.65;;;-0.30;99.90;;;;;;8278541;28;20511;-70
2020/12/14 05:04:42;;;;;;;11.60;7.88;;;-0.30;99.90;;;;;;8294362;28;20141;-70
2020/12/14 05:08:42;;;;;;;13.75;7.60;;;-0.20;99.90;;;;;;8292890;28;20455;-70
2020/12/14 05:12:45;;;;;;;12.45;7.60;;;-0.30;99.90;;;;;;8293593;28;20034;-70
2020/12/14 05:16:46;;;;;;;11.57;7.22;;;-0.10;99.90;;;;;;8293765;28;20041;-70
2020/12/14 05:20:59;;;;;;;10.10;6.43;;;0.00;99.90;;;;;;8292816;28;20113;-71
2020/12/14 05:25:00;;;;;;;25.23;15.27;;;-0.20;99.90;;;;;;8292367;28;20022;-70
2020/12/14 05:29:01;;;;;;;31.65;16.60;;;-0.50;99.90;;;;;;8293852;28;20467;-70
2020/12/14 05:33:02;;;;;;;15.50;9.63;;;-0.50;99.90;;;;;;8291449;28;20030;-70
2020/12/14 05:37:05;;;;;;;11.50;7.32;;;-0.70;99.90;;;;;;8291691;28;20038;-70
2020/12/14 05:41:06;;;;;;;15.27;7.50;;;-0.60;99.90;;;;;;8271689;28;20042;-70
2020/12/14 05:45:11;;;;;;;11.90;7.35;;;-0.70;99.90;;;;;;8290408;28;20496;-70
2020/12/14 05:49:12;;;;;;;14.20;7.80;;;-0.40;99.90;;;;;;8302188;28;20084;-70
2020/12/14 05:53:18;;;;;;;11.80;6.82;;;-0.50;99.90;;;;;;8303246;28;20061;-71
2020/12/14 05:57:34;;;;;;;10.85;6.85;;;-0.70;99.90;;;;;;8301475;28;20496;-71
2020/12/14 06:01:35;;;;;;;12.43;7.10;;;-0.70;99.90;;;;;;8313807;28;20056;-70
2020/12/14 06:05:36;;;;;;;18.52;9.70;;;-0.70;99.90;;;;;;8297618;28;20128;-70
2020/12/14 06:09:37;;;;;;;16.02;8.68;;;-0.60;99.90;;;;;;8296719;28;20487;-70
2020/12/14 06:13:47;;;;;;;13.18;7.57;;;-0.50;99.90;;;;;;8303118;28;20025;-70
2020/12/14 06:17:50;;;;;;;17.65;11.10;;;-0.70;99.90;;;;;;8304243;28;20026;-70
2020/12/14 06:22:00;;;;;;;17.95;10.00;;;-0.50;99.90;;;;;;8302557;28;20425;-70
2020/12/14 06:26:05;;;;;;;16.08;8.75;;;-0.50;99.90;;;;;;8302703;28;20026;-69
2020/12/14 06:30:32;;;;;;;46.65;17.40;;;-0.50;99.90;;;;;;8302403;28;20034;-69
2020/12/14 06:34:32;;;;;;;11.80;7.53;;;1.30;99.90;;;;;;8290859;28;20562;-69
2020/12/14 06:38:37;;;;;;;14.85;8.27;;;2.30;99.90;;;;;;8280392;28;20034;-67
2020/12/14 06:42:38;;;;;;;15.30;8.80;;;0.90;99.90;;;;;;8271788;28;20026;-66
2020/12/14 06:46:39;;;;;;;14.00;8.52;;;0.00;99.90;;;;;;8299007;28;20412;-67
2020/12/14 06:50:40;;;;;;;19.63;9.07;;;-0.50;99.90;;;;;;8297102;28;20044;-66
2020/12/14 06:54:43;;;;;;;17.35;9.60;;;-0.50;99.90;;;;;;8294725;28;20136;-66
2020/12/14 06:58:46;;;;;;;15.48;9.32;;;-0.30;99.90;;;;;;8295292;28;20026;-68
2020/12/14 07:02:46;;;;;;;58.92;11.85;;;-0.30;99.90;;;;;;8289115;28;20037;-67
2020/12/14 07:06:47;;;;;;;24.00;9.55;;;-0.10;99.90;;;;;;8296237;28;20026;-67
2020/12/14 07:11:07;;;;;;;39.38;10.30;;;0.00;99.90;;;;;;8295707;28;20177;-68
2020/12/14 07:15:22;;;;;;;30.15;11.10;;;0.10;99.90;;;;;;8297417;28;20051;-69
2020/12/14 07:19:37;;;;;;;37.90;11.57;;;-0.10;99.90;;;;;;8281976;28;20420;-68
2020/12/14 07:23:39;;;;;;;37.92;11.50;;;-0.20;99.90;;;;;;8274686;28;20666;-67
2020/12/14 07:27:40;;;;;;;45.38;11.95;;;-0.20;99.90;;;;;;8297493;28;20026;-68
2020/12/14 07:31:40;;;;;;;57.15;13.02;;;0.00;99.90;;;;;;8296090;28;20480;-67
2020/12/14 07:35:41;;;;;;;55.08;9.68;;;0.10;99.90;;;;;;8297283;28;20021;-68
2020/12/14 07:39:47;;;;;;;91.60;11.77;;;0.20;99.90;;;;;;8296905;28;20030;-67
2020/12/14 07:43:54;;;;;;;48.65;12.73;;;0.30;99.90;;;;;;8295720;28;20080;-68
2020/12/14 07:47:55;;;;;;;51.25;14.55;;;0.40;99.90;;;;;;8296901;28;20084;-67
2020/12/14 07:51:57;;;;;;;84.63;15.77;;;0.40;99.90;;;;;;8296664;28;20033;-67
2020/12/14 07:56:02;;;;;;;95.63;13.13;;;0.60;99.90;;;;;;8295286;28;20060;-68
2020/12/14 08:00:19;;;;;;;131.98;11.82;;;0.60;99.90;;;;;;8295837;28;20025;-68
2020/12/14 08:04:27;;;;;;;94.55;10.82;;;1.00;99.90;;;;;;8296045;28;20436;-68
2020/12/14 08:08:28;;;;;;;45.72;8.02;;;0.80;99.90;;;;;;8296420;28;20475;-67
2020/12/14 08:12:29;;;;;;;109.63;10.70;;;0.60;99.90;;;;;;8295934;28;20033;-67
2020/12/14 08:16:30;;;;;;;45.15;8.20;;;0.80;99.90;;;;;;8294510;28;20403;-68
2020/12/14 08:20:31;;;;;;;113.35;10.63;;;0.80;99.90;;;;;;8287641;28;20080;-67
2020/12/14 08:24:33;;;;;;;63.28;8.75;;;0.90;99.90;;;;;;8262003;28;20022;-68
2020/12/14 08:28:34;;;;;;;61.08;9.65;;;1.10;99.90;;;;;;8263617;28;20034;-68
2020/12/14 08:32:36;;;;;;;175.45;11.27;;;1.00;99.90;;;;;;8295457;28;20030;-67
2020/12/14 08:36:40;;;;;;;114.55;9.82;;;1.20;99.90;;;;;;8295223;28;20029;-68
2020/12/14 08:40:51;;;;;;;137.00;10.77;;;1.20;99.90;;;;;;8294882;28;20112;-68
2020/12/14 08:45:11;;;;;;;44.45;9.32;;;1.20;99.90;;;;;;8294820;28;20117;-68
2020/12/14 08:49:12;;;;;;;43.53;6.90;;;1.40;99.90;;;;;;8294363;28;20100;-68
2020/12/14 08:53:13;;;;;;;14.80;3.65;;;1.50;99.90;;;;;;8293548;28;20029;-68
2020/12/14 08:57:30;;;;;;;40.67;7.10;;;1.30;99.90;;;;;;8294369;28;20026;-67
2020/12/14 09:01:32;;;;;;;48.92;7.75;;;0.70;99.90;;;;;;8294397;28;20028;-70
2020/12/14 09:05:34;;;;;;;59.08;7.38;;;0.80;99.90;;;;;;8294213;28;20238;-68
2020/12/14 09:09:38;;;;;;;92.43;9.10;;;1.10;99.90;;;;;;8293512;28;20045;-67
2020/12/14 09:13:39;;;;;;;70.45;7.32;;;1.30;99.90;;;;;;8276862;28;20076;-68
2020/12/14 09:17:39;;;;;;;53.90;8.70;;;1.50;99.90;;;;;;8293884;28;20056;-68
2020/12/14 09:21:41;;;;;;;47.67;7.97;;;1.70;99.90;;;;;;8292918;28;20034;-68
2020/12/14 09:25:43;;;;;;;37.95;7.50;;;1.70;99.90;;;;;;8293779;28;20106;-69
2020/12/14 09:29:45;;;;;;;49.38;8.30;;;1.90;99.90;;;;;;8292728;28;20018;-68
2020/12/14 09:33:46;;;;;;;26.10;6.82;;;2.00;99.90;;;;;;8293937;28;20026;-67
2020/12/14 09:37:46;;;;;;;25.17;7.45;;;2.20;99.90;;;;;;8291740;28;20391;-68
2020/12/14 09:41:47;;;;;;;24.08;7.07;;;2.70;99.90;;;;;;8290116;28;20038;-68
2020/12/14 09:45:51;;;;;;;29.20;6.63;;;3.10;99.90;;;;;;8289135;28;20030;-68
2020/12/14 09:49:52;;;;;;;22.20;7.82;;;3.30;99.90;;;;;;8292472;28;20070;-69
2020/12/14 09:53:53;;;;;;;30.92;8.52;;;3.50;99.90;;;;;;8292815;28;20472;-69
2020/12/14 09:57:54;;;;;;;21.13;7.93;;;3.40;99.90;;;;;;8292161;28;20026;-69
2020/12/14 10:01:54;;;;;;;30.65;7.20;;;3.60;99.90;;;;;;8279086;28;20039;-69
2020/12/14 10:05:55;;;;;;;13.90;6.90;;;3.80;99.90;;;;;;8260999;28;20038;-69
2020/12/14 10:09:55;;;;;;;13.65;7.15;;;4.00;99.90;;;;;;8260690;28;20030;-68
2020/12/14 10:13:56;;;;;;;8.40;5.90;;;4.20;99.90;;;;;;8260779;28;20077;-69
2020/12/14 10:17:57;;;;;;;10.02;6.15;;;4.50;99.90;;;;;;8260762;28;20050;-68
2020/12/14 10:21:58;;;;;;;8.90;6.57;;;;;;;;;;8261757;28;20033;-68
2020/12/14 10:25:59;;;;;;;7.43;5.75;;;5.50;99.90;;;;;;8276456;28;20064;-69
2020/12/14 10:30:00;;;;;;;;;;;;;;;;;;8303707;28;20057;-70
2020/12/14 10:34:01;;;;;;;44.60;15.45;;;9.90;99.90;;;;;;8330565;28;20470;-69
2020/12/14 10:47:17;;;;;;;;;;;12.50;99.90;;;;;;8299862;28;20024;-69
2020/12/14 10:51:18;;;;;;;;;;;12.50;99.90;;;;;;8298120;28;19905;-70
2020/12/14 10:55:18;;;;;;;;;;;13.60;99.90;;;;;;8298065;28;19909;-69
2020/12/14 10:59:19;;;;;;;;;;;14.60;99.20;;;;;;8297709;28;19998;-70
2020/12/14 11:12:39;;;;;;;;;;;14.30;95.70;;;;;;8315120;28;19972;-70
2020/12/14 11:16:42;;;;;;;;;;;13.60;97.50;;;;;;8293731;28;20359;-70
2020/12/14 11:20:42;;;;;;;;;;;14.20;96.30;;;;;;8296903;28;19945;-70
2020/12/14 11:24:43;;;;;;;;;;;14.20;96.50;;;;;;8284728;28;19932;-71
2020/12/14 12:00:52;;;;;;;;;;;18.10;86.60;;;;;;8307769;28;19928;-74
2020/12/14 12:04:53;;;;;;;;;;;18.50;82.00;;;;;;8321471;28;20354;-74
2020/12/14 12:08:54;;;;;;;;;;;18.00;82.30;;;;;;8327825;28;20534;-73
2020/12/14 12:12:54;;;;;;;;;;;18.40;81.20;;;;;;8329209;28;19928;-73
2020/12/14 12:16:55;;;;;;;;;;;19.20;79.40;;;;;;8329120;28;19976;-74
2020/12/14 12:20:55;;;;;;;;;;;18.60;78.70;;;;;;8304252;28;19914;-73
2020/12/14 12:24:56;;;;;;;;;;;17.70;82.20;;;;;;8278009;28;19941;-73
2020/12/14 12:28:56;;;;;;;;;;;18.50;81.20;;;;;;8290119;28;20530;-75
2020/12/14 13:05:28;;;;;;;;;;;12.60;96.70;;;;;;8221149;28;20525;-73
2020/12/14 13:09:28;;;;;;;;;;;14.70;95.20;;;;;;8320512;28;19905;-73
2020/12/14 13:13:29;;;;;;;;;;;15.50;92.70;;;;;;8326377;28;19913;-73
2020/12/14 13:17:29;;;;;;;;;;;14.30;94.20;;;;;;8326085;28;19959;-72
2020/12/14 13:21:30;;;;;;;;;;;13.30;96.70;;;;;;8327344;28;19909;-73
2020/12/14 13:25:31;;;;;;;;;;;12.30;98.80;;;;;;8301203;28;19912;-72
2020/12/14 13:29:31;;;;;;;;;;;11.10;99.90;;;;;;8289704;28;19910;-72
2020/12/14 13:33:31;;;;;;;;;;;10.60;99.90;;;;;;8290337;28;19923;-72
2020/12/14 13:37:32;;;;;;;;;;;11.00;99.90;;;;;;8293021;28;19912;-73
2020/12/14 13:41:33;;;;;;;;;;;10.60;99.90;;;;;;8293341;28;19931;-73
2020/12/14 13:45:34;;;;;;;6.20;5.60;;;9.70;99.90;;;;;;8261750;28;20825;-72
2020/12/14 13:49:34;;;;;;;7.90;6.25;;;9.00;99.90;;;;;;8260164;28;20060;-72
2020/12/14 13:53:37;;;;;;;9.85;7.53;;;8.80;99.90;;;;;;8261407;28;20030;-72
2020/12/14 13:57:37;;;;;;;5.00;3.97;;;8.90;99.90;;;;;;8265114;28;20026;-72
2020/12/14 14:01:38;;;;;;;5.38;4.15;;;8.80;99.90;;;;;;8293566;28;20399;-72
2020/12/14 14:05:38;;;;;;;5.75;4.50;;;8.40;99.90;;;;;;8299827;28;20148;-72
2020/12/14 14:09:39;;;;;;;5.78;4.30;;;8.20;99.90;;;;;;8299910;28;20434;-72
2020/12/14 14:13:39;;;;;;;5.57;4.03;;;7.60;99.90;;;;;;8299533;28;20099;-71
2020/12/14 14:17:40;;;;;;;4.70;3.72;;;7.40;99.90;;;;;;8295088;28;20026;-72
2020/12/14 14:21:41;;;;;;;4.70;3.45;;;7.30;99.90;;;;;;8298999;28;20060;-72
2020/12/14 14:25:41;;;;;;;6.25;3.50;;;7.10;99.90;;;;;;8297623;28;20026;-72
2020/12/14 14:29:42;;;;;;;5.22;4.03;;;7.20;99.90;;;;;;8292679;28;20034;-71
2020/12/14 14:33:42;;;;;;;16.63;8.73;;;6.40;99.90;;;;;;8292639;28;20041;-72
2020/12/14 14:37:44;;;;;;;6.18;4.47;;;6.00;99.90;;;;;;8297861;28;20026;-72
2020/12/14 14:41:46;;;;;;;8.48;4.82;;;5.80;99.90;;;;;;8297165;28;20535;-76
2020/12/14 14:45:46;;;;;;;7.07;5.03;;;5.90;99.90;;;;;;8293712;28;20030;-69
2020/12/14 14:49:47;;;;;;;5.53;4.32;;;5.70;99.90;;;;;;8293429;28;20032;-70
2020/12/14 14:53:48;;;;;;;7.00;4.60;;;5.50;99.90;;;;;;8297049;28;20411;-70
2020/12/14 14:57:48;;;;;;;6.45;4.38;;;5.20;99.90;;;;;;8297287;28;20069;-68
2020/12/14 15:01:49;;;;;;;6.30;4.53;;;5.20;99.90;;;;;;8296151;28;20030;-71
2020/12/14 15:05:49;;;;;;;5.40;4.13;;;5.30;99.90;;;;;;8295627;28;20026;-70
2020/12/14 15:09:50;;;;;;;5.18;4.03;;;5.10;99.90;;;;;;8295099;28;20028;-69
2020/12/14 15:13:51;;;;;;;34.30;16.27;;;5.00;99.90;;;;;;8296876;28;20036;-69
2020/12/14 15:17:51;;;;;;;15.02;8.75;;;5.00;99.90;;;;;;8296981;28;20030;-72
2020/12/14 15:21:52;;;;;;;20.77;9.70;;;5.10;99.90;;;;;;8296272;28;20109;-75
2020/12/14 15:25:52;;;;;;;24.67;12.48;;;5.00;99.90;;;;;;8296800;28;20073;-70
2020/12/14 15:29:53;;;;;;;30.05;16.05;;;4.80;99.90;;;;;;8288090;28;20177;-71
2020/12/14 15:33:54;;;;;;;34.83;21.38;;;5.20;99.90;;;;;;8296783;28;20020;-71
2020/12/14 15:37:55;;;;;;;13.40;8.10;;;5.00;99.90;;;;;;8296730;28;20037;-72
2020/12/14 15:41:56;;;;;;;10.60;7.20;;;4.60;99.90;;;;;;8295607;28;21356;-74
2020/12/14 15:45:56;;;;;;;33.55;21.10;;;4.60;99.90;;;;;;8283566;28;20037;-71
2020/12/14 15:49:57;;;;;;;17.15;11.57;;;4.60;99.90;;;;;;8273099;28;20097;-71
2020/12/14 15:53:57;;;;;;;14.55;9.07;;;4.40;99.90;;;;;;8289782;28;20033;-71
2020/12/14 15:57:58;;;;;;;8.25;6.18;;;4.50;99.90;;;;;;8291935;28;20419;-72
2020/12/14 16:01:59;;;;;;;8.65;6.20;;;4.60;99.90;;;;;;8293648;28;20037;-71
2020/12/14 16:06:02;;;;;;;13.27;9.00;;;4.30;99.90;;;;;;8290107;28;20084;-71
2020/12/14 16:10:03;;;;;;;34.10;18.67;;;4.20;99.90;;;;;;8265098;28;20047;-72
2020/12/14 16:14:03;;;;;;;25.50;15.18;;;4.00;99.90;;;;;;8279754;28;20030;-72
2020/12/14 16:18:04;;;;;;;23.45;15.95;;;3.90;99.90;;;;;;8286125;28;20097;-72
2020/12/14 16:22:04;;;;;;;23.50;15.02;;;4.10;99.90;;;;;;8293233;28;20018;-72
2020/12/14 16:26:05;;;;;;;20.15;13.07;;;4.20;99.90;;;;;;8294097;28;20022;-72
2020/12/14 16:30:08;;;;;;;20.63;12.45;;;4.10;99.90;;;;;;8294880;28;20038;-72
2020/12/14 16:34:08;;;;;;;20.65;13.07;;;3.80;99.90;;;;;;8295709;28;20058;-72
2020/12/14 16:38:09;;;;;;;22.52;14.65;;;3.70;99.90;;;;;;8295618;28;20033;-71
2020/12/14 16:42:14;;;;;;;18.65;12.20;;;3.70;99.90;;;;;;8295184;28;20113;-71
2020/12/14 16:46:15;;;;;;;15.23;9.70;;;;;;;;;;8295136;28;20484;-72
2020/12/14 16:50:15;;;;;;;15.43;9.90;;;;;;;;;;8293666;28;20033;-71
2020/12/14 16:54:17;;;;;;;12.70;8.40;;;;;;;;;;8295047;28;20037;-72
2020/12/14 16:58:17;;;;;;;10.65;7.25;;;3.80;99.90;;;;;;8295169;28;20033;-72
2020/12/14 17:02:18;;;;;;;12.57;7.88;;;3.40;99.90;;;;;;8294983;28;20030;-71
2020/12/14 17:06:19;;;;;;;11.15;7.03;;;3.20;99.90;;;;;;8294601;28;20037;-72
2020/12/14 17:10:23;;;;;;;12.15;7.78;;;3.10;99.90;;;;;;8293071;28;20026;-72
2020/12/14 17:14:23;;;;;;;46.55;22.02;;;3.00;99.90;;;;;;8293072;28;20391;-72
2020/12/14 17:18:24;;;;;;;107.18;46.50;;;3.20;99.90;;;;;;8294700;28;20046;-71
2020/12/14 17:22:25;;;;;;;59.65;30.83;;;3.00;99.90;;;;;;8294294;28;20029;-72
2020/12/14 17:26:26;;;;;;;48.53;24.73;;;3.00;99.90;;;;;;8293686;28;20084;-72
2020/12/14 17:30:27;;;;;;;43.60;23.00;;;2.80;99.90;;;;;;8293348;28;20117;-72
2020/12/14 17:34:36;;;;;;;48.38;22.08;;;2.80;99.90;;;;;;8293830;28;20033;-72
2020/12/14 17:38:36;;;;;;;42.88;22.08;;;2.80;99.90;;;;;;8292564;28;20030;-72
2020/12/14 17:42:37;;;;;;;215.20;19.33;;;2.60;99.90;;;;;;8292909;28;20029;-71
2020/12/14 17:46:38;;;;;;;38.35;15.85;;;2.80;99.90;;;;;;8294045;28;20038;-71
2020/12/14 17:50:38;;;;;;;37.58;15.13;;;3.00;99.90;;;;;;8292129;28;20030;-72
2020/12/14 17:54:39;;;;;;;31.38;16.45;;;3.00;99.90;;;;;;8293895;28;20018;-72
2020/12/14 17:58:42;;;;;;;42.58;17.80;;;2.80;99.90;;;;;;8292679;28;20022;-71
2020/12/14 18:02:43;;;;;;;78.95;15.80;;;2.80;99.90;;;;;;8285593;28;20125;-70
2020/12/14 18:06:43;;;;;;;101.72;13.50;;;2.70;99.90;;;;;;8289138;28;20026;-70
2020/12/14 18:10:44;;;;;;;93.20;8.68;;;2.80;99.90;;;;;;8291733;28;20494;-70
2020/12/14 18:14:44;;;;;;;75.80;12.35;;;2.90;99.90;;;;;;8283712;28;20510;-73
2020/12/14 18:18:45;;;;;;;136.20;12.32;;;2.70;99.90;;;;;;8287316;28;20510;-67
2020/12/14 18:22:46;;;;;;;45.60;14.73;;;2.40;99.90;;;;;;8293183;28;20030;-69
2020/12/14 18:26:47;;;;;;;25.70;13.73;;;2.30;99.90;;;;;;8293053;28;20068;-72
2020/12/14 18:30:53;;;;;;;29.27;13.32;;;2.30;99.90;;;;;;8283754;28;20064;-72
2020/12/14 18:45:05;;;;;;;29.02;10.18;;;2.30;99.90;;;;;;8294746;28;20178;-72
2020/12/14 19:46:36;;;;;;;70.53;26.48;;;2.30;99.90;;;;;;8262209;28;20045;-69
2020/12/14 21:25:48;;;;;;;18.05;11.15;;;1.30;99.90;;;;;;8291079;28;20118;-68
2020/12/14 21:29:56;;;;;;;16.75;11.02;;;1.50;99.90;;;;;;8290847;28;20033;-68
2020/12/14 21:33:56;;;;;;;16.42;8.93;;;1.50;99.90;;;;;;8289915;28;20549;-67
2020/12/14 21:37:57;;;;;;;19.63;9.40;;;1.50;99.90;;;;;;8290996;28;20029;-67
2020/12/14 21:42:05;;;;;;;41.17;9.90;;;1.70;99.90;;;;;;8283319;28;20026;-70
2020/12/14 21:46:06;;;;;;;14.47;8.50;;;1.90;99.90;;;;;;8278408;28;20518;-67
2020/12/14 21:50:07;;;;;;;12.48;8.50;;;1.60;99.90;;;;;;8292997;28;20037;-68
2020/12/14 21:54:07;;;;;;;14.85;9.05;;;1.40;99.90;;;;;;8292398;28;20022;-68
2020/12/14 21:58:08;;;;;;;15.13;10.15;;;1.40;99.90;;;;;;8292627;28;20029;-68
2020/12/14 22:02:08;;;;;;;15.57;8.93;;;1.70;99.90;;;;;;8293544;28;20494;-68
2020/12/14 22:06:14;;;;;;;13.15;8.90;;;1.90;99.90;;;;;;8293784;28;20053;-67
2020/12/14 22:10:15;;;;;;;17.98;11.68;;;1.90;99.90;;;;;;8293516;28;20022;-68
2020/12/14 22:14:16;;;;;;;24.30;10.13;;;1.80;99.90;;;;;;8292216;28;20404;-67
2020/12/14 22:18:16;;;;;;;94.15;9.57;;;1.80;99.90;;;;;;8296801;28;20036;-68
2020/12/14 22:22:17;;;;;;;27.38;13.88;;;1.60;99.90;;;;;;8299535;28;20096;-68
2020/12/14 22:26:21;;;;;;;32.55;14.88;;;1.80;99.90;;;;;;8299551;28;20037;-67
2020/12/14 22:30:21;;;;;;;34.22;17.33;;;1.80;99.90;;;;;;8298964;28;20089;-67
2020/12/14 22:34:22;;;;;;;21.58;11.55;;;1.80;99.90;;;;;;8299484;28;20065;-67
2020/12/14 22:38:22;;;;;;;25.20;12.70;;;1.80;99.90;;;;;;8298026;28;20022;-68
2020/12/14 22:42:23;;;;;;;23.65;12.52;;;1.90;99.90;;;;;;8298940;28;20029;-68
2020/12/14 22:46:24;;;;;;;34.13;18.10;;;1.80;99.90;;;;;;8298993;28;20122;-68
2020/12/14 22:50:24;;;;;;;37.00;17.92;;;1.80;99.90;;;;;;8297519;28;20491;-67
2020/12/14 22:54:25;;;;;;;33.25;17.23;;;1.90;99.90;;;;;;8296897;28;20369;-68
2020/12/14 22:58:26;;;;;;;24.58;14.38;;;1.90;99.90;;;;;;8297289;28;20133;-68
2020/12/14 23:02:26;;;;;;;23.73;12.68;;;1.90;99.90;;;;;;8297069;28;20042;-68
2020/12/14 23:06:27;;;;;;;24.23;14.38;;;1.70;99.90;;;;;;8298272;28;20040;-68
2020/12/14 23:10:27;;;;;;;22.08;13.00;;;1.70;99.90;;;;;;8296711;28;20036;-67
2020/12/14 23:14:28;;;;;;;23.92;13.52;;;1.70;99.90;;;;;;8298120;28;20038;-68
2020/12/14 23:18:28;;;;;;;21.60;12.98;;;1.50;99.90;;;;;;8298349;28;20046;-67
2020/12/14 23:22:29;;;;;;;24.23;13.82;;;1.60;99.90;;;;;;8297717;28;20034;-68
2020/12/14 23:26:29;;;;;;;18.38;12.10;;;1.70;99.90;;;;;;8296549;28;20120;-70
2020/12/14 23:30:30;;;;;;;21.15;12.38;;;1.80;99.90;;;;;;8295256;28;20095;-68
2020/12/14 23:34:31;;;;;;;25.38;13.00;;;1.70;99.90;;;;;;8297616;28;20053;-68
2020/12/14 23:38:31;;;;;;;24.70;11.23;;;1.60;99.90;;;;;;8297459;28;20026;-67
2020/12/14 23:42:32;;;;;;;20.63;12.45;;;1.70;99.90;;;;;;8297142;28;20026;-67
2020/12/14 23:46:32;;;;;;;24.20;13.23;;;1.80;99.90;;;;;;8297101;28;20508;-68
2020/12/14 23:50:33;;;;;;;20.25;12.65;;;1.50;99.90;;;;;;8295593;28;20029;-68
2020/12/14 23:54:33;;;;;;;24.20;12.65;;;1.40;99.90;;;;;;8296425;28;20026;-67
2020/12/14 23:58:34;;;;;;;21.50;11.68;;;1.60;99.90;;;;;;8295404;28;20030;-68
